Time,TemperatureF,DewpointF,PressureIn,WindDirection,WindDirectionDegrees,WindSpeedMPH,WindSpeedGustMPH,Humidity,HourlyPrecipIn,Conditions,Clouds,dailyrainin,SoftwareType,DateUTC
2013-03-09 00:00:00,41.2,38.8,29.79,SSE,157,4.0,9.0,91,0.00,,,0.00,WeatherCatV1.14B232,2013-03-09 06:00:00,
2013-03-09 00:05:00,41.2,38.8,29.79,SE,128,4.0,7.0,91,0.00,,,0.00,WeatherCatV1.14B232,2013-03-09 06:05:00,
2013-03-09 00:10:00,41.2,38.8,29.79,SSE,153,0.0,9.0,91,0.00,,,0.00,WeatherCatV1.14B232,2013-03-09 06:10:00,
2013-03-09 00:15:00,41.2,38.8,29.80,South,172,2.0,7.0,91,0.04,,,0.01,WeatherCatV1.14B232,2013-03-09 06:15:00,
2013-03-09 00:22:00,41.2,38.8,29.80,SE,144,0.0,0.0,91,0.22,,,0.03,WeatherCatV1.14B232,2013-03-09 06:22:00,
2013-03-09 00:27:00,41.2,38.8,29.80,SE,141,2.0,4.0,91,0.08,,,0.03,WeatherCatV1.14B232,2013-03-09 06:27:00,
2013-03-09 00:32:00,41.2,38.8,29.80,SE,140,2.0,2.0,91,0.05,,,0.03,WeatherCatV1.14B232,2013-03-09 06:32:00,
2013-03-09 00:37:00,41.2,39.1,29.80,SE,140,1.0,4.0,92,0.04,,,0.04,WeatherCatV1.14B232,2013-03-09 06:37:00,
2013-03-09 00:42:00,41.2,39.1,29.80,SE,140,0.0,1.0,92,0.04,,,0.04,WeatherCatV1.14B232,2013-03-09 06:42:00,
2013-03-09 00:47:00,41.2,39.1,29.80,SE,140,0.0,0.0,92,0.04,,,0.04,WeatherCatV1.14B232,2013-03-09 06:47:00,
2013-03-09 00:52:00,41.2,39.1,29.80,SE,140,0.0,0.0,92,0.00,,,0.04,WeatherCatV1.14B232,2013-03-09 06:52:00,
2013-03-09 00:57:00,41.1,39.0,29.80,SE,140,0.0,1.0,92,0.00,,,0.05,WeatherCatV1.14B232,2013-03-09 06:57:00,
2013-03-09 01:02:00,41.1,39.2,29.80,SE,140,0.0,1.0,93,0.00,,,0.05,WeatherCatV1.14B232,2013-03-09 07:02:00,
2013-03-09 01:07:00,41.2,39.3,29.80,SE,140,0.0,0.0,93,0.00,,,0.05,WeatherCatV1.14B232,2013-03-09 07:07:00,
2013-03-09 01:12:00,41.1,39.2,29.80,SE,140,0.0,2.0,93,0.00,,,0.05,WeatherCatV1.14B232,2013-03-09 07:12:00,
2013-03-09 01:17:00,41.1,39.2,29.78,SE,140,0.0,1.0,93,0.00,,,0.05,WeatherCatV1.14B232,2013-03-09 07:17:00,
2013-03-09 01:22:00,41.1,39.2,29.78,SE,140,0.0,0.0,93,0.00,,,0.05,WeatherCatV1.14B232,2013-03-09 07:22:00,
2013-03-09 01:27:00,41.1,39.2,29.78,SE,140,0.0,0.0,93,0.00,,,0.05,WeatherCatV1.14B232,2013-03-09 07:27:00,
2013-03-09 01:32:00,41.1,39.2,29.79,SE,140,1.0,1.0,93,0.00,,,0.05,WeatherCatV1.14B232,2013-03-09 07:32:00,
2013-03-09 01:37:00,40.9,39.0,29.79,SE,140,0.0,0.0,93,0.00,,,0.05,WeatherCatV1.14B232,2013-03-09 07:37:00,
2013-03-09 01:42:00,40.9,39.3,29.79,SE,140,0.0,1.0,94,0.00,,,0.05,WeatherCatV1.14B232,2013-03-09 07:42:00,
2013-03-09 01:47:00,40.9,39.3,29.79,SE,140,0.0,1.0,94,0.00,,,0.05,WeatherCatV1.14B232,2013-03-09 07:47:00,
2013-03-09 01:52:00,40.9,39.3,29.79,SE,140,0.0,1.0,94,0.00,,,0.05,WeatherCatV1.14B232,2013-03-09 07:52:00,
2013-03-09 01:57:00,40.8,39.2,29.79,SE,140,0.0,1.0,94,0.00,,,0.05,WeatherCatV1.14B232,2013-03-09 07:57:00,
2013-03-09 02:02:00,40.8,39.2,29.78,SE,140,0.0,1.0,94,0.00,,,0.05,WeatherCatV1.14B232,2013-03-09 08:02:00,
2013-03-09 02:07:00,40.9,39.3,29.78,SE,140,0.0,1.0,94,0.00,,,0.05,WeatherCatV1.14B232,2013-03-09 08:07:00,
2013-03-09 02:12:00,40.9,39.3,29.78,SE,140,0.0,3.0,94,0.00,,,0.05,WeatherCatV1.14B232,2013-03-09 08:12:00,
2013-03-09 02:17:00,40.9,39.3,29.77,SE,140,0.0,1.0,94,0.00,,,0.05,WeatherCatV1.14B232,2013-03-09 08:17:00,
2013-03-09 02:22:00,41.1,39.8,29.77,SE,140,0.0,1.0,95,0.00,,,0.05,WeatherCatV1.14B232,2013-03-09 08:22:00,
2013-03-09 02:27:00,41.1,39.8,29.77,SE,140,0.0,2.0,95,0.00,,,0.05,WeatherCatV1.14B232,2013-03-09 08:27:00,
2013-03-09 02:32:00,41.2,39.9,29.76,SE,140,0.0,0.0,95,0.00,,,0.05,WeatherCatV1.14B232,2013-03-09 08:32:00,
2013-03-09 02:37:00,41.2,39.9,29.76,SE,140,1.0,1.0,95,0.00,,,0.05,WeatherCatV1.14B232,2013-03-09 08:37:00,
2013-03-09 02:42:00,41.2,39.9,29.76,SE,140,0.0,2.0,95,0.00,,,0.05,WeatherCatV1.14B232,2013-03-09 08:42:00,
2013-03-09 02:47:00,41.2,39.9,29.75,SE,140,0.0,1.0,95,0.00,,,0.05,WeatherCatV1.14B232,2013-03-09 08:47:00,
2013-03-09 02:52:00,41.2,39.9,29.75,SE,140,1.0,2.0,95,0.00,,,0.05,WeatherCatV1.14B232,2013-03-09 08:52:00,
2013-03-09 02:57:00,41.2,39.9,29.75,SE,140,0.0,2.0,95,0.00,,,0.05,WeatherCatV1.14B232,2013-03-09 08:57:00,
2013-03-09 03:02:00,41.2,39.9,29.74,SE,140,0.0,2.0,95,0.00,,,0.05,WeatherCatV1.14B232,2013-03-09 09:02:00,
2013-03-09 03:07:00,41.2,39.9,29.74,SE,140,0.0,3.0,95,0.00,,,0.05,WeatherCatV1.14B232,2013-03-09 09:07:00,
2013-03-09 03:12:00,41.2,39.9,29.74,SE,140,0.0,3.0,95,0.00,,,0.05,WeatherCatV1.14B232,2013-03-09 09:12:00,
2013-03-09 03:17:00,41.2,39.9,29.73,SE,140,2.0,2.0,95,0.00,,,0.05,WeatherCatV1.14B232,2013-03-09 09:17:00,
2013-03-09 03:22:00,41.2,39.9,29.73,SE,140,0.0,3.0,95,0.00,,,0.05,WeatherCatV1.14B232,2013-03-09 09:22:00,
2013-03-09 03:27:00,41.2,39.9,29.73,SE,140,3.0,3.0,95,0.00,,,0.05,WeatherCatV1.14B232,2013-03-09 09:27:00,
2013-03-09 03:32:00,41.2,39.9,29.71,SE,136,0.0,4.0,95,0.00,,,0.05,WeatherCatV1.14B232,2013-03-09 09:32:00,
2013-03-09 03:37:00,41.3,40.0,29.71,SE,136,2.0,4.0,95,0.00,,,0.05,WeatherCatV1.14B232,2013-03-09 09:37:00,
2013-03-09 03:42:00,41.3,40.0,29.71,SE,137,0.0,2.0,95,0.00,,,0.05,WeatherCatV1.14B232,2013-03-09 09:42:00,
2013-03-09 03:47:00,41.3,40.0,29.71,SE,136,0.0,2.0,95,0.00,,,0.05,WeatherCatV1.14B232,2013-03-09 09:47:00,
2013-03-09 03:52:00,41.5,40.2,29.71,SE,136,0.0,3.0,95,0.00,,,0.05,WeatherCatV1.14B232,2013-03-09 09:52:00,
2013-03-09 03:57:00,41.5,40.2,29.71,SE,136,0.0,2.0,95,0.00,,,0.05,WeatherCatV1.14B232,2013-03-09 09:57:00,
2013-03-09 04:02:00,41.5,40.2,29.71,SE,136,2.0,3.0,95,0.00,,,0.06,WeatherCatV1.14B232,2013-03-09 10:02:00,
2013-03-09 04:07:00,41.5,40.2,29.71,SE,136,1.0,2.0,95,0.00,,,0.06,WeatherCatV1.14B232,2013-03-09 10:07:00,
2013-03-09 04:12:00,41.5,40.2,29.71,SE,136,2.0,2.0,95,0.00,,,0.06,WeatherCatV1.14B232,2013-03-09 10:12:00,
2013-03-09 04:17:00,41.5,40.2,29.70,SE,136,0.0,2.0,95,0.00,,,0.06,WeatherCatV1.14B232,2013-03-09 10:17:00,
2013-03-09 04:22:00,41.5,40.2,29.70,SE,136,3.0,3.0,95,0.00,,,0.06,WeatherCatV1.14B232,2013-03-09 10:22:00,
2013-03-09 04:27:00,41.5,40.2,29.70,SE,136,0.0,2.0,95,0.00,,,0.06,WeatherCatV1.14B232,2013-03-09 10:27:00,
2013-03-09 04:32:00,41.5,40.2,29.69,SE,136,1.0,3.0,95,0.00,,,0.06,WeatherCatV1.14B232,2013-03-09 10:32:00,
2013-03-09 04:37:00,41.5,40.2,29.69,SE,132,1.0,4.0,95,0.00,,,0.06,WeatherCatV1.14B232,2013-03-09 10:37:00,
2013-03-09 04:42:00,41.5,40.2,29.69,SE,130,4.0,4.0,95,0.00,,,0.06,WeatherCatV1.14B232,2013-03-09 10:42:00,
2013-03-09 04:47:00,41.6,40.3,29.69,ESE,113,2.0,5.0,95,0.00,,,0.06,WeatherCatV1.14B232,2013-03-09 10:47:00,
2013-03-09 04:52:00,41.6,40.3,29.69,ESE,111,2.0,4.0,95,0.00,,,0.06,WeatherCatV1.14B232,2013-03-09 10:52:00,
2013-03-09 04:57:00,41.8,40.5,29.69,East,100,3.0,5.0,95,0.00,,,0.07,WeatherCatV1.14B232,2013-03-09 10:57:00,
2013-03-09 05:02:00,41.8,40.2,29.68,East,101,2.0,3.0,94,0.00,,,0.07,WeatherCatV1.14B232,2013-03-09 11:02:00,
2013-03-09 05:07:00,41.9,40.3,29.68,ESE,102,0.0,2.0,94,0.00,,,0.07,WeatherCatV1.14B232,2013-03-09 11:07:00,
2013-03-09 05:12:00,41.9,40.3,29.68,ESE,103,2.0,5.0,94,0.00,,,0.07,WeatherCatV1.14B232,2013-03-09 11:12:00,
2013-03-09 05:17:00,41.9,40.3,29.69,ESE,107,3.0,5.0,94,0.00,,,0.07,WeatherCatV1.14B232,2013-03-09 11:17:00,
2013-03-09 05:22:00,42.1,40.5,29.69,ESE,107,3.0,4.0,94,0.00,,,0.07,WeatherCatV1.14B232,2013-03-09 11:22:00,
2013-03-09 05:27:00,42.2,40.3,29.69,SE,128,2.0,4.0,93,0.00,,,0.07,WeatherCatV1.14B232,2013-03-09 11:27:00,
2013-03-09 05:32:00,42.2,40.3,29.68,ESE,120,0.0,4.0,93,0.00,,,0.07,WeatherCatV1.14B232,2013-03-09 11:32:00,
2013-03-09 05:37:00,42.2,40.3,29.68,SE,131,1.0,6.0,93,0.00,,,0.07,WeatherCatV1.14B232,2013-03-09 11:37:00,
2013-03-09 05:42:00,42.3,40.1,29.68,SE,133,3.0,6.0,92,0.00,,,0.07,WeatherCatV1.14B232,2013-03-09 11:42:00,
2013-03-09 05:47:00,42.3,40.1,29.67,SE,138,3.0,5.0,92,0.00,,,0.07,WeatherCatV1.14B232,2013-03-09 11:47:00,
2013-03-09 05:52:00,42.5,40.3,29.67,ESE,119,5.0,5.0,92,0.00,,,0.07,WeatherCatV1.14B232,2013-03-09 11:52:00,
2013-03-09 05:57:00,42.5,40.1,29.67,ESE,123,3.0,5.0,91,0.00,,,0.07,WeatherCatV1.14B232,2013-03-09 11:57:00,
2013-03-09 06:02:00,42.5,40.1,29.67,SE,136,3.0,6.0,91,0.00,,,0.07,WeatherCatV1.14B232,2013-03-09 12:02:00,
2013-03-09 06:07:00,42.5,40.1,29.67,East,100,5.0,6.0,91,0.00,,,0.07,WeatherCatV1.14B232,2013-03-09 12:07:00,
2013-03-09 06:12:00,42.3,39.9,29.67,SE,135,3.0,5.0,91,0.00,,,0.07,WeatherCatV1.14B232,2013-03-09 12:12:00,
2013-03-09 06:17:00,42.3,39.9,29.67,SE,133,1.0,3.0,91,0.00,,,0.07,WeatherCatV1.14B232,2013-03-09 12:17:00,
2013-03-09 06:22:00,42.3,39.9,29.67,ESE,113,3.0,5.0,91,0.00,,,0.07,WeatherCatV1.14B232,2013-03-09 12:22:00,
2013-03-09 06:27:00,42.3,39.9,29.67,SE,137,4.0,4.0,91,0.00,,,0.07,WeatherCatV1.14B232,2013-03-09 12:27:00,
2013-03-09 06:32:00,42.3,39.6,29.67,SE,136,0.0,5.0,90,0.00,,,0.07,WeatherCatV1.14B232,2013-03-09 12:32:00,
2013-03-09 06:37:00,42.5,39.8,29.67,SE,136,5.0,6.0,90,0.00,,,0.07,WeatherCatV1.14B232,2013-03-09 12:37:00,
2013-03-09 06:42:00,42.5,39.8,29.67,SE,127,1.0,5.0,90,0.00,,,0.07,WeatherCatV1.14B232,2013-03-09 12:42:00,
2013-03-09 06:47:00,42.5,39.8,29.67,SE,136,6.0,6.0,90,0.00,,,0.07,WeatherCatV1.14B232,2013-03-09 12:47:00,
2013-03-09 06:52:00,42.6,39.6,29.67,SE,137,3.0,5.0,89,0.00,,,0.07,WeatherCatV1.14B232,2013-03-09 12:52:00,
2013-03-09 06:57:00,42.6,39.6,29.67,ESE,103,3.0,5.0,89,0.00,,,0.07,WeatherCatV1.14B232,2013-03-09 12:57:00,
2013-03-09 07:02:00,42.5,39.5,29.66,SE,126,2.0,5.0,89,0.00,,,0.07,WeatherCatV1.14B232,2013-03-09 13:02:00,
2013-03-09 07:07:00,42.5,39.5,29.66,ESE,116,4.0,5.0,89,0.00,,,0.07,WeatherCatV1.14B232,2013-03-09 13:07:00,
2013-03-09 07:12:00,42.5,39.8,29.66,SE,127,3.0,5.0,90,0.00,,,0.07,WeatherCatV1.14B232,2013-03-09 13:12:00,
2013-03-09 07:17:00,42.5,39.8,29.64,SE,129,2.0,5.0,90,0.00,,,0.07,WeatherCatV1.14B232,2013-03-09 13:17:00,
2013-03-09 07:22:00,42.5,39.8,29.64,ESE,120,2.0,5.0,90,0.00,,,0.07,WeatherCatV1.14B232,2013-03-09 13:22:00,
2013-03-09 07:27:00,42.6,39.9,29.64,SE,124,3.0,6.0,90,0.00,,,0.07,WeatherCatV1.14B232,2013-03-09 13:27:00,
2013-03-09 07:32:00,42.6,39.6,29.64,ESE,123,2.0,5.0,89,0.00,,,0.07,WeatherCatV1.14B232,2013-03-09 13:32:00,
2013-03-09 07:37:00,42.8,39.8,29.64,SE,129,4.0,6.0,89,0.00,,,0.07,WeatherCatV1.14B232,2013-03-09 13:37:00,
2013-03-09 07:42:00,42.8,39.8,29.64,ESE,121,1.0,5.0,89,0.00,,,0.07,WeatherCatV1.14B232,2013-03-09 13:42:00,
2013-03-09 07:47:00,42.9,39.9,29.63,SE,127,5.0,5.0,89,0.00,,,0.07,WeatherCatV1.14B232,2013-03-09 13:47:00,
2013-03-09 07:52:00,42.9,39.6,29.63,ESE,113,4.0,5.0,88,0.00,,,0.07,WeatherCatV1.14B232,2013-03-09 13:52:00,
2013-03-09 07:57:00,42.9,39.6,29.63,ESE,117,4.0,4.0,88,0.00,,,0.07,WeatherCatV1.14B232,2013-03-09 13:57:00,
2013-03-09 08:02:00,43.1,39.8,29.62,ESE,105,4.0,5.0,88,0.00,,,0.07,WeatherCatV1.14B232,2013-03-09 14:02:00,
2013-03-09 08:07:00,43.1,39.8,29.62,SE,134,4.0,5.0,88,0.00,,,0.07,WeatherCatV1.14B232,2013-03-09 14:07:00,
2013-03-09 08:12:00,43.2,39.9,29.62,East,96,3.0,7.0,88,0.00,,,0.07,WeatherCatV1.14B232,2013-03-09 14:12:00,
2013-03-09 08:17:00,43.3,40.0,29.61,SE,125,2.0,5.0,88,0.00,,,0.07,WeatherCatV1.14B232,2013-03-09 14:17:00,
2013-03-09 08:22:00,43.5,39.9,29.61,SE,130,4.0,5.0,87,0.00,,,0.07,WeatherCatV1.14B232,2013-03-09 14:22:00,
2013-03-09 08:27:00,43.6,40.0,29.61,SE,144,3.0,6.0,87,0.00,,,0.07,WeatherCatV1.14B232,2013-03-09 14:27:00,
2013-03-09 08:32:00,43.6,40.0,29.61,ESE,107,4.0,5.0,87,0.00,,,0.07,WeatherCatV1.14B232,2013-03-09 14:32:00,
2013-03-09 08:37:00,43.9,40.3,29.61,East,97,7.0,7.0,87,0.00,,,0.07,WeatherCatV1.14B232,2013-03-09 14:37:00,
2013-03-09 08:42:00,44.1,40.5,29.61,SE,129,2.0,7.0,87,0.00,,,0.07,WeatherCatV1.14B232,2013-03-09 14:42:00,
2013-03-09 08:47:00,44.3,40.7,29.60,SE,140,5.0,7.0,87,0.00,,,0.07,WeatherCatV1.14B232,2013-03-09 14:47:00,
2013-03-09 08:52:00,44.5,40.6,29.60,SE,143,6.0,7.0,86,0.00,,,0.07,WeatherCatV1.14B232,2013-03-09 14:52:00,
2013-03-09 08:57:00,44.8,40.9,29.60,SE,146,4.0,9.0,86,0.00,,,0.07,WeatherCatV1.14B232,2013-03-09 14:57:00,
2013-03-09 09:02:00,44.9,40.7,29.59,SE,124,4.0,7.0,85,0.00,,,0.07,WeatherCatV1.14B232,2013-03-09 15:02:00,
2013-03-09 09:07:00,45.1,40.9,29.59,SE,125,2.0,10.0,85,0.00,,,0.07,WeatherCatV1.14B232,2013-03-09 15:07:00,
2013-03-09 09:12:00,45.1,40.9,29.59,ESE,114,4.0,8.0,85,0.00,,,0.07,WeatherCatV1.14B232,2013-03-09 15:12:00,
2013-03-09 09:17:00,45.1,40.9,29.59,SE,138,5.0,10.0,85,0.00,,,0.07,WeatherCatV1.14B232,2013-03-09 15:17:00,
2013-03-09 09:22:00,45.1,40.9,29.59,South,186,3.0,10.0,85,0.00,,,0.07,WeatherCatV1.14B232,2013-03-09 15:22:00,
2013-03-09 09:27:00,45.1,40.9,29.59,SE,132,6.0,10.0,85,0.00,,,0.07,WeatherCatV1.14B232,2013-03-09 15:27:00,
2013-03-09 09:32:00,45.1,40.9,29.58,SE,135,1.0,7.0,85,0.00,,,0.07,WeatherCatV1.14B232,2013-03-09 15:32:00,
2013-03-09 09:37:00,44.9,40.7,29.58,ESE,119,4.0,7.0,85,0.00,,,0.07,WeatherCatV1.14B232,2013-03-09 15:37:00,
2013-03-09 09:42:00,44.9,41.0,29.58,ESE,115,4.0,6.0,86,0.00,,,0.07,WeatherCatV1.14B232,2013-03-09 15:42:00,
2013-03-09 09:47:00,44.9,41.0,29.56,SE,134,6.0,9.0,86,0.00,,,0.07,WeatherCatV1.14B232,2013-03-09 15:47:00,
2013-03-09 09:52:00,45.1,41.5,29.56,SE,134,6.0,11.0,87,0.00,,,0.07,WeatherCatV1.14B232,2013-03-09 15:52:00,
2013-03-09 09:57:00,45.1,41.5,29.56,SSE,150,4.0,11.0,87,0.00,,,0.07,WeatherCatV1.14B232,2013-03-09 15:57:00,
2013-03-09 10:02:00,45.4,42.1,29.56,SE,126,4.0,7.0,88,0.00,,,0.07,WeatherCatV1.14B232,2013-03-09 16:02:00,
2013-03-09 10:07:00,45.5,42.2,29.56,SSE,157,5.0,7.0,88,0.00,,,0.07,WeatherCatV1.14B232,2013-03-09 16:07:00,
2013-03-09 10:12:00,45.8,42.5,29.56,SE,136,5.0,12.0,88,0.00,,,0.07,WeatherCatV1.14B232,2013-03-09 16:12:00,
2013-03-09 10:17:00,46.0,42.6,29.54,SSE,147,2.0,4.0,88,0.00,,,0.07,WeatherCatV1.14B232,2013-03-09 16:17:00,
2013-03-09 10:22:00,46.1,42.7,29.54,SE,136,0.0,1.0,88,0.00,,,0.07,WeatherCatV1.14B232,2013-03-09 16:22:00,
2013-03-09 10:27:00,46.0,42.6,29.54,East,94,4.0,9.0,88,0.00,,,0.07,WeatherCatV1.14B232,2013-03-09 16:27:00,
2013-03-09 10:32:00,45.8,42.5,29.54,East,98,6.0,8.0,88,0.00,,,0.07,WeatherCatV1.14B232,2013-03-09 16:32:00,
2013-03-09 10:37:00,46.0,42.9,29.54,ESE,122,9.0,10.0,89,0.00,,,0.07,WeatherCatV1.14B232,2013-03-09 16:37:00,
2013-03-09 10:42:00,46.1,43.0,29.54,SE,134,4.0,9.0,89,0.00,,,0.07,WeatherCatV1.14B232,2013-03-09 16:42:00,
2013-03-09 10:47:00,46.2,43.1,29.53,SE,134,3.0,6.0,89,0.00,,,0.07,WeatherCatV1.14B232,2013-03-09 16:47:00,
2013-03-09 10:53:00,46.5,43.7,29.53,SE,128,3.0,6.0,90,0.00,,,0.07,WeatherCatV1.14B232,2013-03-09 16:53:00,
2013-03-09 10:58:00,46.8,44.0,29.53,SSE,150,1.0,9.0,90,0.00,,,0.07,WeatherCatV1.14B232,2013-03-09 16:58:00,
2013-03-09 11:03:00,47.1,44.3,29.53,SSE,157,4.0,6.0,90,0.00,,,0.07,WeatherCatV1.14B232,2013-03-09 17:03:00,
2013-03-09 11:08:00,47.3,44.5,29.53,SE,134,2.0,6.0,90,0.00,,,0.07,WeatherCatV1.14B232,2013-03-09 17:08:00,
2013-03-09 11:13:00,47.6,44.8,29.53,South,171,2.0,3.0,90,0.00,,,0.07,WeatherCatV1.14B232,2013-03-09 17:13:00,
2013-03-09 11:18:00,47.9,45.4,29.52,South,190,2.0,5.0,91,0.00,,,0.07,WeatherCatV1.14B232,2013-03-09 17:18:00,
2013-03-09 11:23:00,48.2,45.7,29.52,South,183,7.0,7.0,91,0.00,,,0.07,WeatherCatV1.14B232,2013-03-09 17:23:00,
2013-03-09 11:28:00,48.3,45.8,29.52,South,174,1.0,12.0,91,0.00,,,0.07,WeatherCatV1.14B232,2013-03-09 17:28:00,
2013-03-09 11:33:00,48.2,45.7,29.57,South,182,5.0,5.0,91,0.00,,,0.07,WeatherCatV1.14B232,2013-03-09 17:33:00,
2013-03-09 11:38:00,48.2,45.7,29.57,SSE,150,3.0,11.0,91,0.00,,,0.07,WeatherCatV1.14B232,2013-03-09 17:38:00,
2013-03-09 11:43:00,48.0,45.5,29.57,SSE,163,7.0,7.0,91,0.00,,,0.07,WeatherCatV1.14B232,2013-03-09 17:43:00,
2013-03-09 11:48:00,48.2,45.7,29.56,SSE,158,5.0,11.0,91,0.00,,,0.07,WeatherCatV1.14B232,2013-03-09 17:48:00,
2013-03-09 11:53:00,48.3,45.8,29.56,SSE,165,3.0,4.0,91,0.00,,,0.07,WeatherCatV1.14B232,2013-03-09 17:53:00,
2013-03-09 11:58:00,48.5,46.3,29.56,South,182,4.0,7.0,92,0.00,,,0.07,WeatherCatV1.14B232,2013-03-09 17:58:00,
2013-03-09 12:03:00,48.5,46.3,29.56,South,172,3.0,11.0,92,0.00,,,0.07,WeatherCatV1.14B232,2013-03-09 18:03:00,
2013-03-09 12:08:00,48.5,46.3,29.56,South,170,5.0,8.0,92,0.00,,,0.07,WeatherCatV1.14B232,2013-03-09 18:08:00,
2013-03-09 12:13:00,48.5,46.3,29.56,South,170,8.0,12.0,92,0.00,,,0.07,WeatherCatV1.14B232,2013-03-09 18:13:00,
2013-03-09 12:18:00,48.5,46.3,29.56,South,175,0.0,3.0,92,0.00,,,0.07,WeatherCatV1.14B232,2013-03-09 18:18:00,
2013-03-09 12:23:00,48.5,46.3,29.56,SSE,148,2.0,6.0,92,0.00,,,0.07,WeatherCatV1.14B232,2013-03-09 18:23:00,
2013-03-09 12:28:00,48.5,46.3,29.56,SSE,148,0.0,3.0,92,0.00,,,0.07,WeatherCatV1.14B232,2013-03-09 18:28:00,
2013-03-09 12:33:00,48.6,46.4,29.54,SSE,148,0.0,2.0,92,0.00,,,0.07,WeatherCatV1.14B232,2013-03-09 18:33:00,
2013-03-09 12:38:00,48.6,46.4,29.54,SSE,149,1.0,4.0,92,0.00,,,0.07,WeatherCatV1.14B232,2013-03-09 18:38:00,
2013-03-09 12:43:00,48.8,46.6,29.54,SE,139,0.0,0.0,92,0.00,,,0.07,WeatherCatV1.14B232,2013-03-09 18:43:00,
2013-03-09 12:48:00,48.9,46.7,29.53,SE,140,0.0,2.0,92,0.00,,,0.07,WeatherCatV1.14B232,2013-03-09 18:48:00,
2013-03-09 12:53:00,49.1,46.9,29.53,SE,140,0.0,1.0,92,0.00,,,0.07,WeatherCatV1.14B232,2013-03-09 18:53:00,
2013-03-09 12:58:00,49.2,47.0,29.53,SE,140,1.0,2.0,92,0.00,,,0.07,WeatherCatV1.14B232,2013-03-09 18:58:00,
2013-03-09 13:03:00,49.4,47.2,29.52,SE,139,0.0,2.0,92,0.00,,,0.07,WeatherCatV1.14B232,2013-03-09 19:03:00,
2013-03-09 13:08:00,49.5,47.3,29.52,SE,139,1.0,1.0,92,0.00,,,0.07,WeatherCatV1.14B232,2013-03-09 19:08:00,
2013-03-09 13:13:00,49.5,47.3,29.52,SE,139,0.0,4.0,92,0.00,,,0.07,WeatherCatV1.14B232,2013-03-09 19:13:00,
2013-03-09 13:18:00,49.6,47.4,29.52,SE,137,0.0,3.0,92,0.00,,,0.07,WeatherCatV1.14B232,2013-03-09 19:18:00,
2013-03-09 13:23:00,49.6,47.4,29.52,SE,126,0.0,1.0,92,0.00,,,0.07,WeatherCatV1.14B232,2013-03-09 19:23:00,
2013-03-09 13:28:00,49.8,47.6,29.52,SE,126,0.0,1.0,92,0.00,,,0.07,WeatherCatV1.14B232,2013-03-09 19:28:00,
2013-03-09 13:33:00,49.8,47.6,29.52,SE,126,0.0,2.0,92,0.00,,,0.07,WeatherCatV1.14B232,2013-03-09 19:33:00,
2013-03-09 13:38:00,49.9,47.7,29.52,SE,126,2.0,3.0,92,0.00,,,0.07,WeatherCatV1.14B232,2013-03-09 19:38:00,
2013-03-09 13:43:00,49.9,47.7,29.52,SE,126,0.0,1.0,92,0.00,,,0.07,WeatherCatV1.14B232,2013-03-09 19:43:00,
2013-03-09 13:48:00,50.1,47.9,29.51,SE,127,0.0,2.0,92,0.00,,,0.07,WeatherCatV1.14B232,2013-03-09 19:48:00,
2013-03-09 13:53:00,50.4,48.5,29.51,SE,131,1.0,4.0,93,0.00,,,0.07,WeatherCatV1.14B232,2013-03-09 19:53:00,
2013-03-09 13:58:00,50.8,48.8,29.51,SSE,147,3.0,3.0,93,0.00,,,0.07,WeatherCatV1.14B232,2013-03-09 19:58:00,
2013-03-09 14:03:00,51.3,49.1,29.49,SSE,164,0.0,3.0,92,0.00,,,0.07,WeatherCatV1.14B232,2013-03-09 20:03:00,
2013-03-09 14:08:00,51.6,49.4,29.49,South,173,0.0,5.0,92,0.00,,,0.07,WeatherCatV1.14B232,2013-03-09 20:08:00,
2013-03-09 14:13:00,51.7,49.2,29.49,SSE,152,1.0,5.0,91,0.00,,,0.07,WeatherCatV1.14B232,2013-03-09 20:13:00,
2013-03-09 14:18:00,51.9,49.4,29.49,SSE,157,1.0,4.0,91,0.00,,,0.07,WeatherCatV1.14B232,2013-03-09 20:18:00,
2013-03-09 14:23:00,52.0,49.2,29.49,SE,142,3.0,7.0,90,0.00,,,0.07,WeatherCatV1.14B232,2013-03-09 20:23:00,
2013-03-09 14:28:00,52.2,49.4,29.49,South,178,4.0,9.0,90,0.00,,,0.07,WeatherCatV1.14B232,2013-03-09 20:28:00,
2013-03-09 14:33:00,52.3,49.2,29.49,SSE,150,3.0,4.0,89,0.00,,,0.07,WeatherCatV1.14B232,2013-03-09 20:33:00,
2013-03-09 14:38:00,52.5,49.4,29.49,SSE,165,4.0,6.0,89,0.00,,,0.07,WeatherCatV1.14B232,2013-03-09 20:38:00,
2013-03-09 14:43:00,52.5,49.4,29.49,SSE,162,2.0,3.0,89,0.00,,,0.07,WeatherCatV1.14B232,2013-03-09 20:43:00,
2013-03-09 14:48:00,52.6,49.1,29.49,SSE,161,1.0,4.0,88,0.00,,,0.07,WeatherCatV1.14B232,2013-03-09 20:48:00,
2013-03-09 14:53:00,52.6,49.1,29.49,South,175,3.0,10.0,88,0.00,,,0.07,WeatherCatV1.14B232,2013-03-09 20:53:00,
2013-03-09 14:58:00,52.6,49.1,29.49,SSE,162,4.0,6.0,88,0.00,,,0.07,WeatherCatV1.14B232,2013-03-09 20:58:00,
2013-03-09 15:03:00,52.6,49.1,29.50,SSE,167,3.0,5.0,88,0.00,,,0.07,WeatherCatV1.14B232,2013-03-09 21:03:00,
2013-03-09 15:08:00,52.6,49.1,29.50,South,180,2.0,6.0,88,0.00,,,0.07,WeatherCatV1.14B232,2013-03-09 21:08:00,
2013-03-09 15:13:00,52.6,49.1,29.50,SSE,159,4.0,9.0,88,0.00,,,0.07,WeatherCatV1.14B232,2013-03-09 21:13:00,
2013-03-09 15:18:00,52.6,49.1,29.52,South,181,2.0,10.0,88,0.00,,,0.07,WeatherCatV1.14B232,2013-03-09 21:18:00,
2013-03-09 15:23:00,52.6,49.1,29.52,South,178,4.0,7.0,88,0.00,,,0.07,WeatherCatV1.14B232,2013-03-09 21:23:00,
2013-03-09 15:28:00,52.6,49.1,29.52,South,169,2.0,5.0,88,0.00,,,0.07,WeatherCatV1.14B232,2013-03-09 21:28:00,
2013-03-09 15:33:00,52.8,49.3,29.51,SSE,165,0.0,5.0,88,0.00,,,0.07,WeatherCatV1.14B232,2013-03-09 21:33:00,
2013-03-09 15:38:00,52.8,49.3,29.51,SSE,158,2.0,8.0,88,0.00,,,0.07,WeatherCatV1.14B232,2013-03-09 21:38:00,
2013-03-09 15:43:00,52.9,49.4,29.51,SSE,162,4.0,4.0,88,0.00,,,0.07,WeatherCatV1.14B232,2013-03-09 21:43:00,
2013-03-09 15:48:00,53.2,50.0,29.50,SSE,163,2.0,6.0,89,0.00,,,0.07,WeatherCatV1.14B232,2013-03-09 21:48:00,
2013-03-09 15:53:00,53.3,50.1,29.50,SSE,163,3.0,3.0,89,0.00,,,0.07,WeatherCatV1.14B232,2013-03-09 21:53:00,
2013-03-09 15:58:00,53.3,50.1,29.50,SE,146,1.0,3.0,89,0.00,,,0.07,WeatherCatV1.14B232,2013-03-09 21:58:00,
2013-03-09 16:03:00,53.3,50.1,29.48,SE,140,2.0,7.0,89,0.00,,,0.07,WeatherCatV1.14B232,2013-03-09 22:03:00,
2013-03-09 16:08:00,53.2,50.0,29.48,ESE,111,5.0,7.0,89,0.00,,,0.07,WeatherCatV1.14B232,2013-03-09 22:08:00,
2013-03-09 16:13:00,52.9,49.7,29.48,SE,125,4.0,5.0,89,0.00,,,0.07,WeatherCatV1.14B232,2013-03-09 22:13:00,
2013-03-09 16:18:00,52.6,49.5,29.44,ESE,113,4.0,8.0,89,0.00,,,0.07,WeatherCatV1.14B232,2013-03-09 22:18:00,
2013-03-09 16:23:00,52.3,49.5,29.44,SE,144,11.0,11.0,90,0.00,,,0.07,WeatherCatV1.14B232,2013-03-09 22:23:00,
2013-03-09 16:28:00,52.2,49.4,29.44,SE,130,2.0,3.0,90,0.00,,,0.07,WeatherCatV1.14B232,2013-03-09 22:28:00,
2013-03-09 16:33:00,52.0,49.2,29.44,SE,132,5.0,6.0,90,0.00,,,0.07,WeatherCatV1.14B232,2013-03-09 22:33:00,
2013-03-09 16:38:00,51.9,49.4,29.44,SSE,155,1.0,7.0,91,0.00,,,0.07,WeatherCatV1.14B232,2013-03-09 22:38:00,
2013-03-09 16:43:00,51.9,49.4,29.44,SE,133,4.0,5.0,91,0.00,,,0.07,WeatherCatV1.14B232,2013-03-09 22:43:00,
2013-03-09 16:48:00,51.9,49.4,29.44,SE,139,3.0,9.0,91,0.00,,,0.07,WeatherCatV1.14B232,2013-03-09 22:48:00,
2013-03-09 16:53:00,52.0,49.5,29.44,SSE,163,3.0,11.0,91,0.00,,,0.07,WeatherCatV1.14B232,2013-03-09 22:53:00,
2013-03-09 16:58:00,52.0,49.5,29.44,ESE,119,4.0,12.0,91,0.00,,,0.07,WeatherCatV1.14B232,2013-03-09 22:58:00,
2013-03-09 17:03:00,52.2,49.7,29.44,SE,129,3.0,7.0,91,0.00,,,0.07,WeatherCatV1.14B232,2013-03-09 23:03:00,
2013-03-09 17:08:00,52.2,49.7,29.44,SSE,157,4.0,9.0,91,0.00,,,0.07,WeatherCatV1.14B232,2013-03-09 23:08:00,
2013-03-09 17:13:00,52.3,49.8,29.44,SE,132,2.0,5.0,91,0.00,,,0.07,WeatherCatV1.14B232,2013-03-09 23:13:00,
2013-03-09 17:18:00,52.3,49.8,29.44,SE,126,3.0,5.0,91,0.00,,,0.07,WeatherCatV1.14B232,2013-03-09 23:18:00,
2013-03-09 17:23:00,52.2,49.7,29.44,SE,143,4.0,6.0,91,0.00,,,0.07,WeatherCatV1.14B232,2013-03-09 23:23:00,
2013-03-09 17:28:00,52.3,49.8,29.44,SE,137,5.0,5.0,91,0.00,,,0.07,WeatherCatV1.14B232,2013-03-09 23:28:00,
2013-03-09 17:33:00,52.3,49.8,29.45,SE,134,2.0,5.0,91,0.00,,,0.07,WeatherCatV1.14B232,2013-03-09 23:33:00,
2013-03-09 17:38:00,52.3,49.8,29.45,SSE,161,0.0,3.0,91,0.00,,,0.07,WeatherCatV1.14B232,2013-03-09 23:38:00,
2013-03-09 17:43:00,52.5,49.9,29.45,SSE,153,1.0,1.0,91,0.00,,,0.07,WeatherCatV1.14B232,2013-03-09 23:43:00,
2013-03-09 17:48:00,52.6,50.0,29.45,SSE,151,1.0,1.0,91,0.00,,,0.07,WeatherCatV1.14B232,2013-03-09 23:48:00,
2013-03-09 17:53:00,52.6,49.8,29.45,South,186,5.0,7.0,90,0.00,,,0.07,WeatherCatV1.14B232,2013-03-09 23:53:00,
2013-03-09 17:58:00,52.6,49.8,29.45,South,178,0.0,4.0,90,0.00,,,0.07,WeatherCatV1.14B232,2013-03-09 23:58:00,
2013-03-09 18:03:00,52.8,49.9,29.47,South,175,0.0,3.0,90,0.00,,,0.07,WeatherCatV1.14B232,2013-03-10 00:03:00,
2013-03-09 18:08:00,52.6,49.8,29.47,South,176,0.0,3.0,90,0.00,,,0.07,WeatherCatV1.14B232,2013-03-10 00:08:00,
2013-03-09 18:13:00,52.6,49.8,29.47,South,175,0.0,1.0,90,0.00,,,0.07,WeatherCatV1.14B232,2013-03-10 00:13:00,
2013-03-09 18:18:00,52.6,49.8,29.48,South,176,0.0,0.0,90,0.00,,,0.07,WeatherCatV1.14B232,2013-03-10 00:18:00,
2013-03-09 18:23:00,52.5,49.7,29.48,South,175,0.0,1.0,90,0.00,,,0.07,WeatherCatV1.14B232,2013-03-10 00:23:00,
2013-03-09 18:28:00,52.5,49.7,29.48,South,176,0.0,0.0,90,0.00,,,0.07,WeatherCatV1.14B232,2013-03-10 00:28:00,
2013-03-09 18:33:00,52.5,49.7,29.48,South,176,1.0,1.0,90,0.00,,,0.07,WeatherCatV1.14B232,2013-03-10 00:33:00,
2013-03-09 18:38:00,52.5,49.9,29.48,South,176,3.0,5.0,91,0.00,,,0.07,WeatherCatV1.14B232,2013-03-10 00:38:00,
2013-03-09 18:43:00,52.5,49.9,29.48,South,176,2.0,4.0,91,0.00,,,0.07,WeatherCatV1.14B232,2013-03-10 00:43:00,
2013-03-09 18:48:00,52.5,49.9,29.49,South,175,0.0,1.0,91,0.00,,,0.07,WeatherCatV1.14B232,2013-03-10 00:48:00,
2013-03-09 18:53:00,52.6,50.0,29.49,South,175,0.0,1.0,91,0.00,,,0.07,WeatherCatV1.14B232,2013-03-10 00:53:00,
2013-03-09 18:58:00,52.6,50.0,29.49,South,175,1.0,1.0,91,0.00,,,0.07,WeatherCatV1.14B232,2013-03-10 00:58:00,
2013-03-09 19:03:00,52.5,49.9,29.50,SSW,199,4.0,5.0,91,0.00,,,0.07,WeatherCatV1.14B232,2013-03-10 01:03:00,
2013-03-09 19:08:00,52.5,49.9,29.50,SSW,199,0.0,1.0,91,0.00,,,0.07,WeatherCatV1.14B232,2013-03-10 01:08:00,
2013-03-09 19:13:00,52.5,50.2,29.50,SSW,199,0.0,0.0,92,0.00,,,0.07,WeatherCatV1.14B232,2013-03-10 01:13:00,
2013-03-09 19:18:00,52.5,50.2,29.51,SSW,199,0.0,0.0,92,0.00,,,0.07,WeatherCatV1.14B232,2013-03-10 01:18:00,
2013-03-09 19:23:00,52.5,50.2,29.51,SSW,199,0.0,0.0,92,0.00,,,0.07,WeatherCatV1.14B232,2013-03-10 01:23:00,
2013-03-09 19:28:00,52.3,50.0,29.51,SSW,199,0.0,0.0,92,0.00,,,0.07,WeatherCatV1.14B232,2013-03-10 01:28:00,
2013-03-09 19:33:00,52.3,50.0,29.51,SSW,199,0.0,0.0,92,0.00,,,0.07,WeatherCatV1.14B232,2013-03-10 01:33:00,
2013-03-09 19:38:00,52.2,49.9,29.51,SSW,199,0.0,0.0,92,0.00,,,0.07,WeatherCatV1.14B232,2013-03-10 01:38:00,
2013-03-09 19:43:00,52.0,49.7,29.51,SSW,199,0.0,0.0,92,0.00,,,0.07,WeatherCatV1.14B232,2013-03-10 01:43:00,
2013-03-09 19:48:00,52.0,49.7,29.50,SSW,199,0.0,0.0,92,0.00,,,0.07,WeatherCatV1.14B232,2013-03-10 01:48:00,
2013-03-09 19:53:00,51.9,49.6,29.50,SSW,199,0.0,0.0,92,0.00,,,0.07,WeatherCatV1.14B232,2013-03-10 01:53:00,
2013-03-09 19:58:00,51.9,49.9,29.50,SSW,199,0.0,1.0,93,0.00,,,0.07,WeatherCatV1.14B232,2013-03-10 01:58:00,
2013-03-09 20:03:00,51.7,49.7,29.50,SSW,199,0.0,1.0,93,0.00,,,0.07,WeatherCatV1.14B232,2013-03-10 02:03:00,
2013-03-09 20:08:00,51.6,49.6,29.50,SSW,199,0.0,1.0,93,0.00,,,0.07,WeatherCatV1.14B232,2013-03-10 02:08:00,
2013-03-09 20:13:00,51.6,49.6,29.50,SSW,199,0.0,0.0,93,0.00,,,0.07,WeatherCatV1.14B232,2013-03-10 02:13:00,
2013-03-09 20:18:00,51.6,49.6,29.51,SSW,199,0.0,0.0,93,0.00,,,0.07,WeatherCatV1.14B232,2013-03-10 02:18:00,
2013-03-09 20:23:00,51.4,49.4,29.51,SSW,199,0.0,0.0,93,0.00,,,0.07,WeatherCatV1.14B232,2013-03-10 02:23:00,
2013-03-09 20:28:00,51.4,49.4,29.51,SSW,199,0.0,1.0,93,0.00,,,0.07,WeatherCatV1.14B232,2013-03-10 02:28:00,
2013-03-09 20:33:00,51.3,49.6,29.52,West,279,3.0,11.0,94,0.00,,,0.07,WeatherCatV1.14B232,2013-03-10 02:33:00,
2013-03-09 20:38:00,49.5,46.7,29.52,West,275,0.0,6.0,90,0.00,,,0.07,WeatherCatV1.14B232,2013-03-10 02:38:00,
2013-03-09 20:43:00,47.7,44.6,29.52,WSW,240,9.0,9.0,89,0.00,,,0.07,WeatherCatV1.14B232,2013-03-10 02:43:00,
2013-03-09 20:48:00,46.4,43.3,29.55,WNW,282,2.0,7.0,89,0.00,,,0.07,WeatherCatV1.14B232,2013-03-10 02:48:00,
2013-03-09 20:53:00,45.4,42.3,29.55,West,263,2.0,5.0,89,0.00,,,0.07,WeatherCatV1.14B232,2013-03-10 02:53:00,
2013-03-09 20:58:00,44.8,42.3,29.55,NNW,336,11.0,11.0,91,0.00,,,0.07,WeatherCatV1.14B232,2013-03-10 02:58:00,
2013-03-09 21:03:00,44.2,41.5,29.56,NW,313,12.0,13.0,90,0.00,,,0.07,WeatherCatV1.14B232,2013-03-10 03:03:00,
2013-03-09 21:08:00,43.3,40.6,29.56,NNW,337,10.0,15.0,90,0.00,,,0.07,WeatherCatV1.14B232,2013-03-10 03:08:00,
2013-03-09 21:13:00,42.9,40.2,29.56,NNW,340,7.0,12.0,90,0.00,,,0.07,WeatherCatV1.14B232,2013-03-10 03:13:00,
2013-03-09 21:18:00,42.3,39.9,29.57,NW,321,5.0,13.0,91,0.00,,,0.07,WeatherCatV1.14B232,2013-03-10 03:18:00,
2013-03-09 21:23:00,42.1,39.7,29.57,North,0,4.0,17.0,91,0.00,,,0.07,WeatherCatV1.14B232,2013-03-10 03:23:00,
2013-03-09 21:28:00,41.6,39.2,29.57,NW,321,12.0,17.0,91,0.00,,,0.07,WeatherCatV1.14B232,2013-03-10 03:28:00,
2013-03-09 21:33:00,41.3,38.9,29.56,NW,317,3.0,23.0,91,0.00,,,0.07,WeatherCatV1.14B232,2013-03-10 03:33:00,
2013-03-09 21:38:00,41.2,39.1,29.56,NNW,327,9.0,15.0,92,0.00,,,0.08,WeatherCatV1.14B232,2013-03-10 03:38:00,
2013-03-09 21:43:00,40.9,38.8,29.56,NNW,336,10.0,14.0,92,0.11,,,0.09,WeatherCatV1.14B232,2013-03-10 03:43:00,
2013-03-09 21:48:00,40.6,38.5,29.58,North,5,7.0,13.0,92,0.07,,,0.09,WeatherCatV1.14B232,2013-03-10 03:48:00,
2013-03-09 21:53:00,40.5,38.4,29.58,NNW,335,13.0,14.0,92,0.04,,,0.09,WeatherCatV1.14B232,2013-03-10 03:53:00,
2013-03-09 21:58:00,40.3,38.2,29.58,WNW,298,4.0,13.0,92,0.00,,,0.09,WeatherCatV1.14B232,2013-03-10 03:58:00,
2013-03-09 22:03:00,40.2,38.1,29.59,North,355,9.0,14.0,92,0.00,,,0.09,WeatherCatV1.14B232,2013-03-10 04:03:00,
2013-03-09 22:08:00,40.1,38.2,29.59,NNW,338,5.0,13.0,93,0.00,,,0.09,WeatherCatV1.14B232,2013-03-10 04:08:00,
2013-03-09 22:13:00,39.9,38.0,29.59,NNW,336,7.0,12.0,93,0.00,,,0.09,WeatherCatV1.14B232,2013-03-10 04:13:00,
2013-03-09 22:18:00,39.8,37.9,29.59,NW,321,3.0,14.0,93,0.00,,,0.09,WeatherCatV1.14B232,2013-03-10 04:18:00,
2013-03-09 22:23:00,39.8,37.9,29.59,NNW,327,5.0,9.0,93,0.00,,,0.09,WeatherCatV1.14B232,2013-03-10 04:23:00,
2013-03-09 22:28:00,39.8,37.9,29.59,NW,317,3.0,10.0,93,0.00,,,0.09,WeatherCatV1.14B232,2013-03-10 04:28:00,
2013-03-09 22:33:00,39.6,37.7,29.59,North,355,7.0,12.0,93,0.00,,,0.09,WeatherCatV1.14B232,2013-03-10 04:33:00,
2013-03-09 22:38:00,39.5,37.6,29.59,NNW,327,11.0,15.0,93,0.00,,,0.10,WeatherCatV1.14B232,2013-03-10 04:38:00,
2013-03-09 22:43:00,39.2,37.3,29.59,NW,325,5.0,7.0,93,0.00,,,0.10,WeatherCatV1.14B232,2013-03-10 04:43:00,
2013-03-09 22:48:00,39.1,37.2,29.61,NNW,342,9.0,13.0,93,0.00,,,0.10,WeatherCatV1.14B232,2013-03-10 04:48:00,
2013-03-09 22:53:00,38.8,37.0,29.61,NNW,347,14.0,14.0,93,0.00,,,0.10,WeatherCatV1.14B232,2013-03-10 04:53:00,
2013-03-09 22:58:00,38.5,36.7,29.61,NNW,329,4.0,17.0,93,0.00,,,0.10,WeatherCatV1.14B232,2013-03-10 04:58:00,
2013-03-09 23:00:00,38.3,36.5,29.60,NNW,330,1.0,10.0,93,0.00,,,0.10,WeatherCatV1.14B232,2013-03-10 05:00:00,
2013-03-09 23:05:00,38.0,36.2,29.60,NNW,347,16.0,19.0,93,0.00,,,0.10,WeatherCatV1.14B232,2013-03-10 05:05:00,
2013-03-09 23:10:00,37.8,36.0,29.60,NNE,15,12.0,14.0,93,0.00,,,0.10,WeatherCatV1.14B232,2013-03-10 05:10:00,
2013-03-09 23:15:00,37.6,35.5,29.61,North,355,13.0,16.0,92,0.00,,,0.10,WeatherCatV1.14B232,2013-03-10 05:15:00,
2013-03-09 23:20:00,37.3,35.2,29.61,North,9,6.0,13.0,92,0.00,,,0.10,WeatherCatV1.14B232,2013-03-10 05:20:00,
2013-03-09 23:25:00,37.2,35.1,29.61,NNW,344,7.0,18.0,92,0.00,,,0.10,WeatherCatV1.14B232,2013-03-10 05:25:00,
2013-03-09 23:30:00,37.2,35.1,29.61,NW,319,15.0,18.0,92,0.00,,,0.10,WeatherCatV1.14B232,2013-03-10 05:30:00,
2013-03-09 23:35:00,37.0,34.9,29.61,NNW,329,12.0,18.0,92,0.00,,,0.10,WeatherCatV1.14B232,2013-03-10 05:35:00,
2013-03-09 23:40:00,36.9,34.8,29.61,NNW,344,8.0,16.0,92,0.00,,,0.10,WeatherCatV1.14B232,2013-03-10 05:40:00,
2013-03-09 23:45:00,36.8,34.7,29.59,NW,315,5.0,13.0,92,0.00,,,0.10,WeatherCatV1.14B232,2013-03-10 05:45:00,
2013-03-09 23:50:00,36.6,34.5,29.59,NNW,344,9.0,17.0,92,0.00,,,0.10,WeatherCatV1.14B232,2013-03-10 05:50:00,
2013-03-09 23:55:00,36.5,34.4,29.59,North,9,11.0,18.0,92,0.00,,,0.10,WeatherCatV1.14B232,2013-03-10 05:55:00,